Airfield :
LOGIN :

Register | Disclaimer

   EN    FR    IT 

 










Legend :    VFR   Marginal VFR   IFR   Intensive IFR   Very Intensive IFR
Visi :
Ceiling :
>= 8 km
>= 3000ft
5 to 8 km
1000 to 3000 ft
1500m to 5 km
500 to 1000 ft
800 to 1500m
200 to 500 ft
< 800m
< 200 ft
Symbols :   Thunderstorms  Fog  Heavy snow  Heavy precipitations  Wind > 20 kt
SIGMETs :     Misc.  Thunderstorms  Icing  Turbulence  Mountain Waves  Volcanic Ashes






- Airport Elevation : 1411 ft
- IATA code : SZG


LOWS - Salzburg

CURRENT METAR :
  • 280650Z VRB02KT 1400 R15/P1500U R33/P1500N BCFG SCT002 BKN120 M02/M02 Q1016 TEMPO 5000 BR

EXPIRED METARs :
  • 280620Z 06002KT 1800 BR BKN002 M02/M02 Q1016 TEMPO 4000 BR SCT003 BKN120
  • 280550Z 34002KT 1600 BR BKN002 M02/M02 Q1016 TEMPO 4000 BR SCT003 BKN120
  • 280520Z 34005KT 1200 R15/P1500U R33/P1500U BCFG BKN002 BKN120 M02/M02 Q1016 TEMPO 2500 BR SCT002
  • 280450Z 32004KT 300V010 1200 R15/P1500N R33/P1500U BCFG SCT002 BKN120 M03/M03 Q1016 TEMPO 0500 BCFG BKN002

TAF TAF LOWS
Valid from the 28 at 06:00 until the 29 at 06:00 UTC


280515Z 2806/2906 15005KT 5000 SCT005 BKN120 TX04/2814Z TNM02/2806Z
TEMPO 2806/2808 VRB02KT 0400 BCFG BKN002
BECMG 2808/2810 34005KT 9999
BECMG 2816/2818 15006KT
TEMPO 2819/2906 -RA BKN030
PROB30
TEMPO 2900/2906 4000 RADZ BKN012



MET'MAP, your aeronautical weather chart ! - Copyright ORBIFLY December 2007 - Disclaimer

ORBIFLY MET'MAP TEAM :

Programming & Development : Alexandra Zaïnal
Original concept : Baudouin d'Aumeries
Technical & hardware support : Manuel Goepfert
Assistance : Marc-Olivier Méhu




SOURCES & CREDITS :

   NOAA